Time;durP1;ratioP1;P1;durP2;ratioP2;P2;SDS_P1;SDS_P2;PMS_P1;PMS_P2;Temp;Humidity;BMP_temperature;BMP_pressure;BME280_temperature;BME280_humidity;BME280_pressure;Samples;Min_cycle;Max_cycle;Signal;HPM_P1;HPM_P2
2021/10/09 00:01:16;;;;;;;143.40;59.92;;;8.10;99.90;;;;;;4978182;28;20076;-67
2021/10/09 00:03:43;;;;;;;120.18;56.80;;;8.00;99.90;;;;;;4987773;28;20120;-66
2021/10/09 00:06:10;;;;;;;133.15;57.33;;;8.00;99.90;;;;;;4998573;28;20050;-68
2021/10/09 00:08:37;;;;;;;142.18;58.88;;;8.00;99.90;;;;;;4999120;28;20057;-67
2021/10/09 00:11:06;;;;;;;140.60;61.38;;;8.10;99.90;;;;;;4998043;28;20041;-67
2021/10/09 00:13:32;;;;;;;139.07;60.50;;;8.10;99.90;;;;;;4999291;28;20133;-68
2021/10/09 00:15:59;;;;;;;136.48;59.42;;;8.10;99.90;;;;;;4997382;28;20041;-68
2021/10/09 00:18:26;;;;;;;127.45;57.50;;;8.00;99.90;;;;;;4999421;28;20061;-68
2021/10/09 00:20:53;;;;;;;127.00;57.67;;;8.00;99.90;;;;;;4997717;28;20050;-68
2021/10/09 00:23:19;;;;;;;139.10;57.42;;;8.00;99.90;;;;;;4998077;28;20407;-67
2021/10/09 00:25:46;;;;;;;123.38;57.85;;;7.90;99.90;;;;;;4997740;28;20441;-67
2021/10/09 00:28:13;;;;;;;122.35;56.97;;;7.80;99.90;;;;;;4999000;28;20081;-67
2021/10/09 00:30:40;;;;;;;119.53;58.00;;;7.80;99.90;;;;;;4983979;28;20415;-67
2021/10/09 00:33:07;;;;;;;119.65;55.53;;;7.70;99.90;;;;;;4977085;28;20058;-68
2021/10/09 00:35:34;;;;;;;124.78;57.05;;;7.80;99.90;;;;;;4990153;28;20311;-68
2021/10/09 00:38:01;;;;;;;114.20;54.63;;;7.80;99.90;;;;;;4997249;28;20045;-66
2021/10/09 00:40:28;;;;;;;108.15;52.08;;;7.80;99.90;;;;;;4997374;28;20438;-67
2021/10/09 00:42:55;;;;;;;106.88;53.03;;;7.70;99.90;;;;;;4997375;28;20061;-68
2021/10/09 00:45:22;;;;;;;119.47;58.10;;;7.80;99.90;;;;;;4997015;28;20117;-67
2021/10/09 00:47:52;;;;;;;113.43;55.83;;;7.80;99.90;;;;;;4962777;28;20369;-67
2021/10/09 00:50:19;;;;;;;122.00;58.20;;;7.80;99.90;;;;;;4946416;28;20071;-68
2021/10/09 00:52:48;;;;;;;121.30;57.53;;;7.80;99.90;;;;;;4993405;28;20074;-67
2021/10/09 00:55:16;;;;;;;108.82;54.05;;;7.90;99.90;;;;;;4981839;28;20114;-67
2021/10/09 00:57:44;;;;;;;107.25;53.85;;;7.80;99.90;;;;;;4975840;28;20552;-68
2021/10/09 01:00:12;;;;;;;110.78;52.67;;;7.80;99.90;;;;;;4986382;28;20053;-66
2021/10/09 01:02:39;;;;;;;115.50;52.05;;;7.70;99.90;;;;;;4994382;28;20085;-67
2021/10/09 01:05:08;;;;;;;115.00;54.95;;;7.70;99.90;;;;;;4994183;28;20327;-67
2021/10/09 01:07:35;;;;;;;111.60;54.17;;;7.70;99.90;;;;;;4998785;28;20085;-68
2021/10/09 01:10:03;;;;;;;107.80;52.85;;;7.70;99.90;;;;;;4997401;28;20053;-67
2021/10/09 01:12:31;;;;;;;98.68;51.33;;;7.80;99.90;;;;;;4980068;28;20045;-66
2021/10/09 01:14:58;;;;;;;110.28;54.28;;;7.70;99.90;;;;;;4980121;28;20049;-67
2021/10/09 01:17:28;;;;;;;109.82;51.60;;;7.80;99.90;;;;;;4980137;28;20115;-68
2021/10/09 01:19:54;;;;;;;107.90;52.92;;;7.70;99.90;;;;;;4980563;28;20092;-68
2021/10/09 01:22:21;;;;;;;106.13;52.30;;;7.60;99.90;;;;;;4980472;28;20100;-67
2021/10/09 01:24:48;;;;;;;102.82;51.03;;;7.60;99.90;;;;;;4981159;28;20064;-67
2021/10/09 01:27:16;;;;;;;94.78;49.47;;;7.60;99.90;;;;;;4962945;28;20062;-67
2021/10/09 01:29:44;;;;;;;99.65;47.40;;;7.70;99.90;;;;;;4995847;28;20161;-67
2021/10/09 01:32:13;;;;;;;90.88;46.78;;;7.60;99.90;;;;;;4974077;28;20241;-67
2021/10/09 01:34:39;;;;;;;83.88;45.95;;;7.60;99.90;;;;;;4982213;28;20133;-68
2021/10/09 01:37:13;;;;;;;90.65;45.55;;;7.60;99.90;;;;;;4972886;28;20042;-67
2021/10/09 01:39:47;;;;;;;83.53;46.03;;;7.60;99.90;;;;;;4961636;28;20058;-67
2021/10/09 01:42:22;;;;;;;89.72;44.72;;;7.50;99.90;;;;;;4946976;28;20470;-68
2021/10/09 01:44:50;;;;;;;90.95;45.22;;;7.40;99.90;;;;;;5017018;28;20107;-67
2021/10/09 01:47:17;;;;;;;84.25;42.72;;;7.40;99.90;;;;;;4996872;28;20058;-68
2021/10/09 01:49:44;;;;;;;79.35;41.75;;;7.40;99.90;;;;;;4996323;28;20462;-67
2021/10/09 01:52:12;;;;;;;79.70;41.60;;;7.50;99.90;;;;;;4978305;28;20046;-67
2021/10/09 01:54:39;;;;;;;79.22;41.17;;;7.30;99.90;;;;;;4996887;28;20344;-67
2021/10/09 01:57:06;;;;;;;70.72;38.95;;;7.40;99.90;;;;;;4995389;28;20053;-66
2021/10/09 01:59:33;;;;;;;74.38;39.95;;;7.40;99.90;;;;;;4991023;28;20054;-67
2021/10/09 02:02:05;;;;;;;76.45;40.55;;;7.30;99.90;;;;;;4988816;28;20077;-66
2021/10/09 02:04:33;;;;;;;70.03;37.35;;;7.30;99.90;;;;;;4982339;28;20130;-67
2021/10/09 02:07:01;;;;;;;75.38;37.85;;;7.30;99.90;;;;;;4958795;28;20507;-67
2021/10/09 02:09:28;;;;;;;74.60;38.00;;;7.30;99.90;;;;;;4974571;28;20129;-67
2021/10/09 02:11:59;;;;;;;82.97;39.88;;;7.20;99.90;;;;;;4990928;28;20080;-66
2021/10/09 02:25:46;;;;;;;69.07;37.47;;;7.00;99.90;;;;;;4977789;28;20061;-66
2021/10/09 02:28:19;;;;;;;72.63;37.28;;;6.90;99.90;;;;;;4980045;28;20060;-65
2021/10/09 02:30:47;;;;;;;76.30;40.35;;;7.00;99.90;;;;;;4975232;28;20561;-65
2021/10/09 02:33:16;;;;;;;71.32;36.20;;;6.80;99.90;;;;;;4977102;28;20187;-65
2021/10/09 02:35:43;;;;;;;61.22;35.80;;;6.80;99.90;;;;;;4976296;28;20060;-66
2021/10/09 02:38:10;;;;;;;67.88;36.22;;;6.70;99.90;;;;;;4992426;28;20052;-66
2021/10/09 02:40:39;;;;;;;70.55;37.88;;;6.70;99.90;;;;;;4992821;28;20045;-67
2021/10/09 02:43:06;;;;;;;67.13;36.10;;;6.60;99.90;;;;;;4995734;28;20058;-66
2021/10/09 02:45:33;;;;;;;73.75;36.47;;;6.60;99.90;;;;;;4993809;28;20042;-66
2021/10/09 02:48:06;;;;;;;74.53;37.15;;;6.60;99.90;;;;;;4995085;28;20507;-67
2021/10/09 02:50:37;;;;;;;69.40;36.25;;;6.60;99.90;;;;;;4994524;28;20041;-66
2021/10/09 02:53:04;;;;;;;65.47;34.88;;;6.70;99.90;;;;;;4997426;28;20108;-67
2021/10/09 02:55:31;;;;;;;70.35;37.13;;;6.60;99.90;;;;;;4994060;28;20127;-66
2021/10/09 02:58:00;;;;;;;60.03;33.10;;;6.60;99.90;;;;;;4980333;28;20443;-66
2021/10/09 03:00:28;;;;;;;59.08;34.13;;;6.70;99.90;;;;;;4965844;28;20124;-66
2021/10/09 03:02:55;;;;;;;64.05;33.83;;;6.70;99.90;;;;;;4979165;28;20133;-66
2021/10/09 03:05:22;;;;;;;57.30;31.48;;;6.80;99.90;;;;;;4974941;28;20472;-67
2021/10/09 03:07:50;;;;;;;59.35;31.60;;;6.90;99.90;;;;;;4975139;28;20195;-66
2021/10/09 03:10:17;;;;;;;58.63;30.60;;;6.90;99.90;;;;;;4971491;28;20145;-66
2021/10/09 03:12:44;;;;;;;56.35;30.13;;;6.80;99.90;;;;;;4961020;28;20080;-66
2021/10/09 03:15:11;;;;;;;55.65;30.00;;;6.70;99.90;;;;;;4976949;28;20042;-67
2021/10/09 03:17:39;;;;;;;56.92;29.75;;;6.50;99.90;;;;;;4980048;28;20507;-66
2021/10/09 03:20:08;;;;;;;52.08;30.00;;;6.40;99.90;;;;;;4981754;28;20117;-66
2021/10/09 03:22:36;;;;;;;51.00;28.40;;;6.40;99.90;;;;;;4998602;28;20061;-67
2021/10/09 03:25:05;;;;;;;49.95;29.63;;;6.30;99.90;;;;;;4981557;28;20560;-67
2021/10/09 03:27:31;;;;;;;58.92;29.60;;;6.20;99.90;;;;;;4980690;28;20045;-68
2021/10/09 03:30:02;;;;;;;50.33;27.58;;;6.20;99.90;;;;;;4996812;28;20124;-67
2021/10/09 03:32:33;;;;;;;51.25;28.08;;;6.20;99.90;;;;;;4997665;28;20134;-66
2021/10/09 03:35:00;;;;;;;50.60;27.98;;;6.30;99.90;;;;;;4997564;28;20051;-67
2021/10/09 03:37:28;;;;;;;54.35;28.73;;;6.40;99.90;;;;;;4995610;28;20053;-67
2021/10/09 03:39:56;;;;;;;49.10;29.70;;;6.40;99.90;;;;;;4982540;28;20520;-67
2021/10/09 03:42:31;;;;;;;58.42;30.20;;;6.40;99.90;;;;;;4981153;28;20053;-66
2021/10/09 03:53:35;;;;;;;50.17;27.77;;;6.20;99.90;;;;;;4998949;28;20049;-67
2021/10/09 03:56:03;;;;;;;46.97;29.08;;;6.10;99.90;;;;;;4998781;28;20060;-68
2021/10/09 03:58:37;;;;;;;57.75;29.63;;;6.20;99.90;;;;;;4982587;28;20423;-69
2021/10/09 04:01:04;;;;;;;54.15;28.17;;;6.30;99.90;;;;;;4991225;28;20053;-68
2021/10/09 04:03:31;;;;;;;45.20;27.35;;;6.20;99.90;;;;;;4999204;28;20050;-69
2021/10/09 04:05:57;;;;;;;53.67;27.17;;;6.20;99.90;;;;;;4998434;28;20060;-68
2021/10/09 04:08:24;;;;;;;45.85;27.98;;;6.00;99.90;;;;;;4962305;28;20045;-68
2021/10/09 04:10:51;;;;;;;50.33;27.48;;;6.00;99.90;;;;;;4995839;28;20045;-69
2021/10/09 04:13:19;;;;;;;53.50;28.48;;;5.90;99.90;;;;;;4982092;28;20058;-68
2021/10/09 04:15:47;;;;;;;52.50;27.83;;;5.90;99.90;;;;;;5010973;28;20553;-67
2021/10/09 04:18:14;;;;;;;47.00;29.00;;;5.90;99.90;;;;;;4997648;28;20061;-68
2021/10/09 04:20:41;;;;;;;50.30;28.63;;;5.90;99.90;;;;;;4980841;28;20061;-68
2021/10/09 04:23:09;;;;;;;53.95;28.15;;;5.90;99.90;;;;;;5000574;28;20053;-68
2021/10/09 04:25:36;;;;;;;52.25;27.35;;;6.00;99.90;;;;;;5000021;28;20422;-65
2021/10/09 04:28:04;;;;;;;59.45;27.48;;;5.90;99.90;;;;;;4967661;28;20141;-68
2021/10/09 04:30:33;;;;;;;53.38;26.73;;;5.80;99.90;;;;;;5000062;28;20049;-66
2021/10/09 04:33:01;;;;;;;46.45;26.33;;;5.70;99.90;;;;;;5000395;28;20366;-68
2021/10/09 04:35:29;;;;;;;48.75;26.60;;;5.80;99.90;;;;;;4999768;28;20474;-67
2021/10/09 04:37:56;;;;;;;48.58;26.60;;;5.70;99.90;;;;;;4998849;28;20365;-67
2021/10/09 04:40:25;;;;;;;48.40;26.92;;;5.70;99.90;;;;;;4999056;28;20053;-66
2021/10/09 04:42:52;;;;;;;46.50;25.27;;;5.80;99.90;;;;;;4997067;28;20160;-66
2021/10/09 04:45:19;;;;;;;47.45;26.67;;;5.80;99.90;;;;;;4990553;28;20414;-67
2021/10/09 04:47:49;;;;;;;49.60;26.08;;;5.70;99.90;;;;;;5013211;28;20069;-66
2021/10/09 04:50:16;;;;;;;58.55;28.70;;;5.60;99.90;;;;;;4981927;28;20057;-67
2021/10/09 04:52:42;;;;;;;49.67;26.25;;;5.60;99.90;;;;;;4980413;28;20370;-66
2021/10/09 04:55:11;;;;;;;49.30;26.75;;;5.50;99.90;;;;;;5013931;28;20053;-66
2021/10/09 04:57:38;;;;;;;52.25;28.52;;;5.60;99.90;;;;;;4999921;28;20365;-67
2021/10/09 05:00:07;;;;;;;56.45;29.42;;;5.60;99.90;;;;;;4991073;28;20992;-67
2021/10/09 05:02:37;;;;;;;54.15;27.75;;;5.60;99.90;;;;;;4997876;28;20535;-66
2021/10/09 05:05:05;;;;;;;52.55;27.02;;;5.60;99.90;;;;;;5000007;28;20433;-66
2021/10/09 05:07:35;;;;;;;51.80;26.73;;;5.50;99.90;;;;;;4983056;28;20076;-66
2021/10/09 05:10:03;;;;;;;49.67;27.40;;;5.30;99.90;;;;;;4983609;28;20056;-65
2021/10/09 05:12:32;;;;;;;51.63;27.23;;;5.30;99.90;;;;;;4983725;28;20111;-67
2021/10/09 05:14:59;;;;;;;58.38;29.33;;;5.20;99.90;;;;;;5017280;28;20053;-66
2021/10/09 05:17:26;;;;;;;63.20;32.30;;;5.20;99.90;;;;;;4982120;28;20052;-66
2021/10/09 05:19:54;;;;;;;56.85;30.23;;;5.10;99.90;;;;;;4982758;28;20568;-66
2021/10/09 05:22:21;;;;;;;59.53;29.85;;;5.20;99.90;;;;;;4982705;28;20057;-67
2021/10/09 05:24:51;;;;;;;54.85;31.50;;;5.10;99.90;;;;;;4983769;28;20403;-67
2021/10/09 05:27:18;;;;;;;58.10;30.02;;;5.20;99.90;;;;;;4982733;28;20057;-67
2021/10/09 05:29:45;;;;;;;58.65;31.17;;;5.30;99.90;;;;;;4998275;28;20258;-66
2021/10/09 05:32:11;;;;;;;62.15;31.85;;;5.40;99.90;;;;;;4994587;28;20137;-68
2021/10/09 05:34:39;;;;;;;55.08;30.30;;;5.40;99.90;;;;;;4980573;28;20111;-67
2021/10/09 05:37:06;;;;;;;61.10;31.23;;;5.50;99.90;;;;;;5006336;28;20473;-66
2021/10/09 05:39:34;;;;;;;59.88;30.38;;;5.50;99.90;;;;;;4983476;28;20073;-69
2021/10/09 05:42:01;;;;;;;62.17;30.58;;;5.50;99.90;;;;;;4999299;28;20104;-67
2021/10/09 05:44:28;;;;;;;54.53;29.38;;;5.60;99.90;;;;;;4998650;28;20065;-67
2021/10/09 05:46:56;;;;;;;55.70;29.02;;;5.60;99.90;;;;;;4966376;28;20057;-66
2021/10/09 05:49:23;;;;;;;49.95;28.25;;;5.60;99.90;;;;;;4974923;28;20069;-66
2021/10/09 05:54:25;;;;;;;60.45;30.33;;;5.50;99.90;;;;;;4982233;28;20168;-66
2021/10/09 05:57:06;;;;;;;54.78;28.83;;;5.50;99.90;;;;;;4988144;28;20052;-69
2021/10/09 06:47:24;;;;;;;58.20;31.95;;;6.60;99.90;;;;;;4995414;28;20054;-67
2021/10/09 07:00:49;;;;;;;57.05;29.70;;;6.90;99.90;;;;;;5013613;28;20476;-66
2021/10/09 07:03:18;;;;;;;60.72;30.15;;;7.00;99.90;;;;;;5001054;28;20443;-67
2021/10/09 07:05:46;;;;;;;56.53;28.48;;;7.10;99.90;;;;;;4996960;28;20052;-65
2021/10/09 07:08:26;;;;;;;56.38;30.13;;;7.20;99.90;;;;;;4997961;28;20045;-67
2021/10/09 07:11:03;;;;;;;52.53;29.50;;;7.30;99.90;;;;;;5012849;28;20578;-67
2021/10/09 07:13:30;;;;;;;54.40;30.17;;;7.40;99.90;;;;;;4989980;28;20141;-67
2021/10/09 07:15:57;;;;;;;47.63;27.52;;;7.40;99.90;;;;;;4988191;28;20041;-66
2021/10/09 07:18:26;;;;;;;53.45;29.00;;;7.50;99.90;;;;;;4997496;28;20553;-66
2021/10/09 07:20:53;;;;;;;54.75;29.92;;;7.60;99.90;;;;;;4979764;28;20045;-68
2021/10/09 07:23:22;;;;;;;51.38;28.27;;;7.70;99.90;;;;;;4980174;28;20057;-68
2021/10/09 07:25:48;;;;;;;54.60;30.42;;;7.70;99.90;;;;;;4997837;28;20050;-66
2021/10/09 07:28:15;;;;;;;49.92;28.50;;;7.80;99.90;;;;;;4992975;28;20045;-65
2021/10/09 07:30:42;;;;;;;59.58;28.70;;;7.90;99.90;;;;;;4992810;28;20069;-65
2021/10/09 07:33:12;;;;;;;51.88;29.65;;;8.00;99.90;;;;;;5010182;28;20045;-66
2021/10/09 07:35:42;;;;;;;51.30;28.65;;;8.10;99.90;;;;;;4993269;28;20045;-67
2021/10/09 07:38:11;;;;;;;53.38;28.65;;;8.20;99.90;;;;;;5014222;28;20088;-67
2021/10/09 07:40:38;;;;;;;49.05;28.88;;;8.20;99.90;;;;;;5014025;28;20088;-68
2021/10/09 07:43:04;;;;;;;50.92;28.42;;;8.30;99.90;;;;;;5012929;28;20446;-66
2021/10/09 07:45:33;;;;;;;42.90;27.60;;;8.40;99.90;;;;;;5013909;28;20525;-65
2021/10/09 07:48:00;;;;;;;53.58;28.67;;;8.50;99.90;;;;;;5015117;28;20053;-67
2021/10/09 07:50:27;;;;;;;41.30;27.00;;;8.60;99.90;;;;;;5012851;28;20046;-66
2021/10/09 07:52:54;;;;;;;48.58;27.88;;;8.60;99.90;;;;;;4979113;28;20465;-66
2021/10/09 07:55:21;;;;;;;45.20;28.08;;;8.80;99.90;;;;;;4979333;28;20500;-65
2021/10/09 07:57:48;;;;;;;48.95;27.73;;;8.90;99.90;;;;;;5015115;28;20452;-66
2021/10/09 08:00:15;;;;;;;42.85;26.80;;;8.90;99.90;;;;;;4989651;28;20041;-66
2021/10/09 08:02:49;;;;;;;42.50;25.60;;;9.00;99.90;;;;;;5009087;28;20073;-65
2021/10/09 08:05:17;;;;;;;;;;;9.10;99.90;;;;;;5016532;28;20305;-67
2021/10/09 08:07:44;;;;;;;44.03;25.63;;;9.30;99.90;;;;;;4999639;28;19925;-66
2021/10/09 08:10:11;;;;;;;48.22;27.15;;;9.50;99.90;;;;;;4980017;28;20179;-66
2021/10/09 08:12:39;;;;;;;43.83;26.23;;;9.60;99.90;;;;;;4999920;28;20041;-67
2021/10/09 08:15:06;;;;;;;39.60;25.48;;;9.60;99.90;;;;;;5017737;28;20068;-66
2021/10/09 08:17:33;;;;;;;41.80;24.98;;;9.90;99.90;;;;;;5018478;28;20068;-66
2021/10/09 08:20:00;;;;;;;44.15;24.40;;;10.20;99.90;;;;;;5000791;28;20140;-66
2021/10/09 08:22:28;;;;;;;48.22;26.58;;;10.40;99.90;;;;;;5003198;28;20045;-66
2021/10/09 08:28:16;;;;;;;43.47;26.92;;;10.60;99.90;;;;;;5012255;28;20477;-67
2021/10/09 08:36:13;;;;;;;40.43;25.40;;;10.80;99.90;;;;;;4999559;28;19921;-66
2021/10/09 08:38:52;;;;;;;44.70;25.88;;;10.90;99.90;;;;;;5018350;28;20060;-68
2021/10/09 08:41:20;;;;;;;34.33;25.25;;;11.20;99.90;;;;;;4999483;28;20502;-68
2021/10/09 08:43:49;;;;;;;47.20;27.50;;;11.30;99.90;;;;;;5018327;28;20640;-69
2021/10/09 08:46:18;;;;;;;36.63;25.92;;;11.20;99.90;;;;;;5017717;28;20069;-67
2021/10/09 08:48:52;;;;;;;41.00;28.27;;;11.40;99.90;;;;;;4995486;28;20058;-67
2021/10/09 08:51:24;;;;;;;37.83;25.40;;;11.40;99.90;;;;;;4999787;28;20292;-67
2021/10/09 08:53:52;;;;;;;40.90;27.45;;;11.60;99.90;;;;;;5000390;28;20065;-68
2021/10/09 08:56:38;;;;;;;34.35;25.88;;;11.80;99.90;;;;;;4999979;28;20673;-67
2021/10/09 08:59:11;;;;;;;;;;;12.10;99.90;;;;;;5000068;28;20057;-66
2021/10/09 09:01:53;;;;;;;39.38;28.55;;;12.00;99.90;;;;;;4999907;28;20228;-67
2021/10/09 09:05:02;;;;;;;38.80;27.65;;;12.10;99.90;;;;;;5002194;28;20054;-68
2021/10/09 09:37:44;;;;;;;36.88;25.52;;;12.50;99.90;;;;;;5026387;28;20113;-67
2021/10/09 09:40:16;;;;;;;33.17;25.83;;;12.70;99.90;;;;;;5002738;28;20108;-70
2021/10/09 09:42:51;;;;;;;34.80;25.35;;;13.00;99.90;;;;;;5023353;28;20057;-69
2021/10/09 09:45:20;;;;;;;;;;;12.90;99.90;;;;;;5007818;28;20096;-68
2021/10/09 09:47:48;;;;;;;38.90;26.58;;;13.20;99.90;;;;;;5008906;28;20429;-72
2021/10/09 09:50:16;;;;;;;33.97;26.05;;;13.30;99.90;;;;;;4999799;28;20565;-69
2021/10/09 09:52:44;;;;;;;36.35;25.98;;;13.60;99.90;;;;;;4987652;28;20072;-70
2021/10/09 09:55:14;;;;;;;36.40;26.35;;;13.50;99.90;;;;;;4989697;28;20390;-68
2021/10/09 09:57:48;;;;;;;38.45;24.75;;;13.50;99.90;;;;;;4989951;28;20045;-69
2021/10/09 10:00:16;;;;;;;38.78;27.75;;;13.40;99.90;;;;;;4997239;28;20769;-69
2021/10/09 10:02:52;;;;;;;39.63;26.83;;;13.30;99.90;;;;;;4999532;28;20108;-70
2021/10/09 10:05:22;;;;;;;39.05;29.23;;;13.40;99.90;;;;;;5019646;28;20042;-70
2021/10/09 10:07:49;;;;;;;41.00;29.98;;;13.30;99.90;;;;;;5017184;28;20107;-70
2021/10/09 10:10:16;;;;;;;34.42;26.90;;;13.40;99.90;;;;;;5013621;28;20072;-69
2021/10/09 10:12:46;;;;;;;38.72;30.35;;;13.80;99.90;;;;;;5018022;28;20129;-69
2021/10/09 10:15:14;;;;;;;34.85;28.42;;;13.70;99.90;;;;;;4979620;28;20068;-70
2021/10/09 10:17:48;;;;;;;42.63;27.92;;;13.60;99.90;;;;;;4981944;28;20150;-69
2021/10/09 10:20:18;;;;;;;32.13;26.08;;;13.80;99.90;;;;;;4981286;28;20494;-70
2021/10/09 10:22:45;;;;;;;37.63;27.05;;;13.90;99.90;;;;;;4982667;28;20444;-70
2021/10/09 10:25:25;;;;;;;35.55;27.52;;;14.00;99.90;;;;;;4966008;28;20049;-69
2021/10/09 10:28:07;;;;;;;30.60;27.27;;;13.90;99.90;;;;;;5004976;28;20067;-68
2021/10/09 10:30:35;;;;;;;36.17;26.67;;;14.00;99.90;;;;;;5003701;28;20217;-71
2021/10/09 10:33:04;;;;;;;39.25;26.60;;;14.10;99.90;;;;;;5004315;28;20045;-71
2021/10/09 10:35:32;;;;;;;35.03;24.92;;;14.00;99.90;;;;;;5023063;28;20037;-72
2021/10/09 10:38:21;;;;;;;33.50;25.73;;;14.10;99.90;;;;;;4972768;28;20038;-70
2021/10/09 10:40:58;;;;;;;32.33;25.90;;;14.10;99.90;;;;;;4994086;28;20061;-71
2021/10/09 10:43:37;;;;;;;29.38;24.58;;;14.10;99.90;;;;;;4989058;28;20056;-69
2021/10/09 10:51:51;;;;;;;32.33;26.17;;;14.30;99.90;;;;;;5020621;28;20052;-70
2021/10/09 10:57:02;;;;;;;29.98;24.63;;;14.90;99.90;;;;;;5008649;28;20195;-71
2021/10/09 10:59:54;;;;;;;30.77;25.15;;;14.70;99.90;;;;;;5014519;28;20226;-70
2021/10/09 11:02:39;;;;;;;30.83;25.00;;;14.80;99.90;;;;;;4972822;28;20340;-69
2021/10/09 11:05:10;;;;;;;28.88;23.77;;;14.50;99.90;;;;;;5014984;28;20493;-69
2021/10/09 11:07:39;;;;;;;28.65;24.20;;;14.80;99.90;;;;;;4969351;28;20045;-70
2021/10/09 11:10:18;;;;;;;35.50;25.40;;;15.10;99.90;;;;;;4980201;28;20053;-69
2021/10/09 11:12:52;;;;;;;28.67;24.40;;;15.30;99.90;;;;;;5016027;28;20053;-69
2021/10/09 11:15:23;;;;;;;32.53;24.83;;;15.20;99.90;;;;;;4996939;28;20411;-69
2021/10/09 11:17:59;;;;;;;30.30;25.48;;;15.10;99.90;;;;;;4998524;28;20060;-69
2021/10/09 11:20:28;;;;;;;31.45;26.05;;;15.20;99.90;;;;;;4993250;28;20046;-70
2021/10/09 11:23:00;;;;;;;33.00;25.83;;;14.90;99.90;;;;;;5014731;28;20440;-69
2021/10/09 11:25:29;;;;;;;30.35;24.38;;;14.60;99.90;;;;;;4990436;28;20049;-70
2021/10/09 11:27:58;;;;;;;35.83;25.73;;;14.60;99.90;;;;;;4972551;28;20049;-72
2021/10/09 11:30:25;;;;;;;26.85;24.00;;;14.70;99.90;;;;;;5009533;28;20053;-70
2021/10/09 11:32:55;;;;;;;33.22;24.15;;;14.50;99.90;;;;;;4996041;28;20057;-69
2021/10/09 11:35:39;;;;;;;32.10;24.38;;;14.60;99.90;;;;;;5001043;28;20057;-68
2021/10/09 11:38:27;;;;;;;30.15;23.70;;;14.40;99.90;;;;;;5016671;28;20049;-69
2021/10/09 11:41:03;;;;;;;27.33;23.33;;;14.40;99.90;;;;;;5036082;28;20103;-69
2021/10/09 11:53:29;;;;;;;32.28;25.17;;;14.50;99.90;;;;;;5037166;28;20056;-69
2021/10/09 11:55:22;;;;;;;29.42;23.75;;;14.60;99.90;;;;;;5000396;28;19924;-68
2021/10/09 11:57:50;;;;;;;29.88;24.92;;;14.40;99.90;;;;;;5000787;28;20497;-70
2021/10/09 12:00:28;;;;;;;30.63;22.60;;;14.60;99.90;;;;;;4983702;28;20045;-69
2021/10/09 12:02:57;;;;;;;25.30;22.67;;;14.90;99.90;;;;;;4999243;28;20512;-70
2021/10/09 12:05:34;;;;;;;33.55;23.65;;;14.60;99.90;;;;;;5000966;28;20068;-70
2021/10/09 12:08:41;;;;;;;27.13;23.08;;;14.70;99.90;;;;;;5000055;28;20152;-70
2021/10/09 12:11:23;;;;;;;26.20;23.02;;;14.70;99.90;;;;;;5012483;28;20061;-70
2021/10/09 12:14:00;;;;;;;29.38;23.35;;;14.60;99.90;;;;;;4984897;28;20136;-70
2021/10/09 12:16:32;;;;;;;25.25;22.60;;;14.60;99.90;;;;;;4999494;28;20573;-70
2021/10/09 12:19:10;;;;;;;24.80;22.10;;;14.80;99.90;;;;;;5018489;28;20099;-68
2021/10/09 12:21:51;;;;;;;26.15;22.98;;;15.00;99.90;;;;;;4994729;28;20041;-69
2021/10/09 12:24:21;;;;;;;28.40;22.63;;;15.00;99.90;;;;;;5014724;28;20240;-68
2021/10/09 12:27:04;;;;;;;28.27;21.77;;;15.10;99.90;;;;;;5017946;28;20076;-69
2021/10/09 12:29:34;;;;;;;27.25;21.90;;;14.90;99.90;;;;;;4998807;28;20136;-67
2021/10/09 12:32:45;;;;;;;23.48;21.33;;;14.90;99.90;;;;;;5002628;28;20106;-68
2021/10/09 12:35:25;;;;;;;23.40;20.65;;;15.00;99.90;;;;;;4970173;28;20053;-69
2021/10/09 12:38:05;;;;;;;27.83;21.02;;;14.90;99.90;;;;;;4998265;28;20053;-70
2021/10/09 12:40:40;;;;;;;24.33;20.55;;;15.00;99.90;;;;;;5016568;28;20049;-70
2021/10/09 12:43:10;;;;;;;26.88;21.75;;;15.00;99.90;;;;;;4999202;28;20140;-70
2021/10/09 12:45:38;;;;;;;25.08;20.65;;;14.90;99.90;;;;;;4967701;28;20132;-70
2021/10/09 12:48:05;;;;;;;29.90;20.77;;;14.70;99.90;;;;;;4982348;28;20081;-70
2021/10/09 12:50:35;;;;;;;22.30;19.80;;;14.80;99.90;;;;;;4995606;28;20049;-71
2021/10/09 12:53:03;;;;;;;24.15;21.48;;;15.10;99.90;;;;;;5018548;28;20057;-69
2021/10/09 12:55:33;;;;;;;23.27;20.25;;;15.00;99.90;;;;;;5015916;28;20122;-70
2021/10/09 12:58:06;;;;;;;23.73;20.50;;;15.00;99.90;;;;;;5017027;28;20081;-70
2021/10/09 13:00:35;;;;;;;22.10;19.83;;;14.90;99.90;;;;;;4986388;28;20802;-69
2021/10/09 13:03:02;;;;;;;31.25;19.80;;;15.00;99.90;;;;;;4993620;28;20045;-70
2021/10/09 13:05:31;;;;;;;23.02;20.60;;;14.80;99.90;;;;;;4999055;28;20354;-70
2021/10/09 13:08:00;;;;;;;22.10;19.67;;;15.10;99.90;;;;;;5017529;28;20148;-68
2021/10/09 13:10:37;;;;;;;22.92;20.42;;;15.10;99.90;;;;;;4995225;28;20049;-70
2021/10/09 13:13:05;;;;;;;23.00;19.77;;;15.20;99.90;;;;;;4983370;28;20393;-69
2021/10/09 13:15:32;;;;;;;22.38;20.02;;;15.20;99.90;;;;;;4995808;28;20540;-69
2021/10/09 13:17:59;;;;;;;22.10;19.80;;;15.40;99.90;;;;;;4996089;28;20127;-69
2021/10/09 13:20:32;;;;;;;31.83;20.27;;;15.50;99.90;;;;;;5012587;28;20644;-70
2021/10/09 13:22:59;;;;;;;21.45;19.42;;;15.40;99.90;;;;;;4982669;28;20045;-69
2021/10/09 13:25:30;;;;;;;21.73;18.73;;;15.50;99.90;;;;;;4998988;28;20069;-68
2021/10/09 13:27:58;;;;;;;22.08;19.27;;;15.20;99.90;;;;;;4995773;28;20117;-69
2021/10/09 13:30:25;;;;;;;24.73;19.77;;;15.30;99.90;;;;;;4997636;28;20438;-69
2021/10/09 13:32:52;;;;;;;21.65;19.45;;;15.30;99.90;;;;;;4995989;28;20044;-68
2021/10/09 13:35:19;;;;;;;21.23;18.98;;;15.20;99.90;;;;;;4997808;28;21278;-70
2021/10/09 13:38:01;;;;;;;21.33;19.13;;;15.30;99.90;;;;;;5014612;28;20065;-71
2021/10/09 13:40:29;;;;;;;24.90;18.25;;;15.10;99.90;;;;;;4996990;28;20124;-68
2021/10/09 13:42:55;;;;;;;21.70;19.55;;;15.30;99.90;;;;;;4998366;28;20505;-70
2021/10/09 13:45:22;;;;;;;24.30;20.30;;;15.50;99.90;;;;;;5014825;28;20137;-70
2021/10/09 13:47:49;;;;;;;22.70;20.58;;;15.60;99.90;;;;;;5014267;28;20064;-68
2021/10/09 13:50:17;;;;;;;20.80;18.65;;;15.60;99.90;;;;;;4996530;28;20347;-69
2021/10/09 13:52:44;;;;;;;20.17;18.15;;;15.80;99.90;;;;;;5007016;28;20621;-68
2021/10/09 13:55:11;;;;;;;20.55;18.65;;;15.70;99.90;;;;;;5016815;28;20071;-69
2021/10/09 13:57:37;;;;;;;21.63;19.42;;;15.40;99.90;;;;;;4998669;28;20062;-68
2021/10/09 14:00:05;;;;;;;24.00;19.40;;;15.20;99.90;;;;;;5015031;28;20110;-70
2021/10/09 14:02:34;;;;;;;19.70;17.98;;;15.60;99.90;;;;;;4993753;28;20120;-69
2021/10/09 14:05:01;;;;;;;20.38;18.00;;;15.40;99.90;;;;;;4992221;28;20053;-67
2021/10/09 14:07:28;;;;;;;20.52;18.45;;;15.50;99.90;;;;;;5016261;28;20037;-70
2021/10/09 14:09:55;;;;;;;19.77;17.83;;;15.60;99.90;;;;;;5004885;28;20345;-69
2021/10/09 14:12:21;;;;;;;19.88;17.95;;;15.40;99.90;;;;;;5016142;28;20051;-69
2021/10/09 14:14:48;;;;;;;20.63;18.48;;;15.30;99.90;;;;;;5016869;28;20362;-70
2021/10/09 14:17:22;;;;;;;19.80;17.88;;;15.40;99.90;;;;;;5106578;27;20835;-72
2021/10/09 14:19:58;;;;;;;19.85;17.95;;;15.40;99.90;;;;;;5103580;28;20092;-71
2021/10/09 14:22:30;;;;;;;20.05;18.30;;;15.10;99.90;;;;;;5090850;28;20359;-71
2021/10/09 14:24:57;;;;;;;19.90;17.90;;;15.00;99.90;;;;;;5093566;28;20055;-70
2021/10/09 14:27:27;;;;;;;19.15;17.45;;;14.90;99.90;;;;;;5093093;27;20577;-71
2021/10/09 14:29:55;;;;;;;19.27;17.27;;;14.80;99.90;;;;;;5093999;28;20082;-71
2021/10/09 14:32:22;;;;;;;19.15;17.30;;;14.80;99.90;;;;;;5079270;28;20052;-70
2021/10/09 14:34:49;;;;;;;20.52;17.98;;;14.70;99.90;;;;;;5071404;28;20036;-69
2021/10/09 14:37:16;;;;;;;19.75;17.90;;;14.70;99.90;;;;;;5071052;28;20064;-69
2021/10/09 14:39:44;;;;;;;18.95;17.17;;;14.60;99.90;;;;;;5073125;28;20198;-70
2021/10/09 14:42:12;;;;;;;19.63;17.80;;;14.70;99.90;;;;;;5090453;28;20056;-70
2021/10/09 14:44:39;;;;;;;19.15;17.35;;;14.70;99.90;;;;;;5086725;28;20071;-71
2021/10/09 14:49:48;;;;;;;18.73;17.08;;;14.70;99.90;;;;;;5071721;28;20048;-69
2021/10/09 14:55:12;;;;;;;19.13;17.50;;;14.60;99.90;;;;;;5091633;28;20066;-70
2021/10/09 15:19:33;;;;;;;19.05;17.15;;;14.40;99.90;;;;;;5072983;28;20062;-70
2021/10/09 15:22:00;;;;;;;19.55;17.63;;;14.30;99.90;;;;;;5070985;28;20047;-69
2021/10/09 15:24:26;;;;;;;18.25;16.63;;;14.30;99.90;;;;;;5051874;28;20051;-70
2021/10/09 15:26:53;;;;;;;17.63;16.25;;;14.30;99.90;;;;;;5063119;28;20040;-69
2021/10/09 15:29:20;;;;;;;17.50;16.02;;;14.30;99.90;;;;;;5059955;28;20295;-70
2021/10/09 15:31:47;;;;;;;18.60;16.65;;;14.10;99.90;;;;;;5056818;28;20040;-69